sensor_id;sensor_type;location;lat;lon;timestamp;pressure;altitude;pressure_sealevel;temperature;humidity
51261;BME280;61705;46.228;24.812;2023-04-15T00:02:13;96666.59;;;6.15;88.21
51261;BME280;61705;46.228;24.812;2023-04-15T00:04:40;96664.13;;;6.11;88.26
51261;BME280;61705;46.228;24.812;2023-04-15T00:07:06;96654.78;;;6.05;88.34
51261;BME280;61705;46.228;24.812;2023-04-15T00:09:33;96662.66;;;6.05;88.60
51261;BME280;61705;46.228;24.812;2023-04-15T00:12:00;96662.66;;;6.05;88.65
51261;BME280;61705;46.228;24.812;2023-04-15T00:14:27;96665.19;;;6.07;88.92
51261;BME280;61705;46.228;24.812;2023-04-15T00:16:54;96665.41;;;6.02;88.67
51261;BME280;61705;46.228;24.812;2023-04-15T00:19:22;96663.91;;;5.97;88.66
51261;BME280;61705;46.228;24.812;2023-04-15T00:21:50;96666.88;;;5.87;88.69
51261;BME280;61705;46.228;24.812;2023-04-15T00:24:16;96668.84;;;5.82;88.87
51261;BME280;61705;46.228;24.812;2023-04-15T00:26:43;96664.81;;;5.75;89.36
51261;BME280;61705;46.228;24.812;2023-04-15T00:29:10;96666.81;;;5.68;89.63
51261;BME280;61705;46.228;24.812;2023-04-15T00:31:36;96672.13;;;5.67;89.77
51261;BME280;61705;46.228;24.812;2023-04-15T00:34:03;96672.25;;;5.64;90.23
51261;BME280;61705;46.228;24.812;2023-04-15T00:36:30;96689.50;;;5.69;90.14
51261;BME280;61705;46.228;24.812;2023-04-15T00:38:57;96684.56;;;5.62;90.11
51261;BME280;61705;46.228;24.812;2023-04-15T00:41:24;96691.00;;;5.55;90.27
51261;BME280;61705;46.228;24.812;2023-04-15T00:43:51;96684.03;;;5.54;90.30
51261;BME280;61705;46.228;24.812;2023-04-15T00:46:19;96683.97;;;5.55;90.46
51261;BME280;61705;46.228;24.812;2023-04-15T00:48:46;96675.50;;;5.49;90.55
51261;BME280;61705;46.228;24.812;2023-04-15T00:51:13;96666.25;;;5.40;90.85
51261;BME280;61705;46.228;24.812;2023-04-15T00:53:40;96664.63;;;5.37;91.41
51261;BME280;61705;46.228;24.812;2023-04-15T00:56:06;96662.50;;;5.47;91.43
51261;BME280;61705;46.228;24.812;2023-04-15T00:58:33;96657.19;;;5.49;91.38
51261;BME280;61705;46.228;24.812;2023-04-15T01:01:00;96653.09;;;5.41;91.47
51261;BME280;61705;46.228;24.812;2023-04-15T01:03:27;96658.22;;;5.44;91.75
51261;BME280;61705;46.228;24.812;2023-04-15T01:05:54;96661.16;;;5.37;91.57
51261;BME280;61705;46.228;24.812;2023-04-15T01:08:27;96670.78;;;5.36;91.67
51261;BME280;61705;46.228;24.812;2023-04-15T01:10:58;96685.31;;;5.43;91.53
51261;BME280;61705;46.228;24.812;2023-04-15T01:13:27;96687.53;;;5.32;91.33
51261;BME280;61705;46.228;24.812;2023-04-15T01:15:55;96685.31;;;5.23;91.30
51261;BME280;61705;46.228;24.812;2023-04-15T01:18:23;96686.16;;;5.23;91.30
51261;BME280;61705;46.228;24.812;2023-04-15T01:20:49;96688.94;;;5.19;91.41
51261;BME280;61705;46.228;24.812;2023-04-15T01:23:17;96688.63;;;5.05;91.44
51261;BME280;61705;46.228;24.812;2023-04-15T01:25:44;96694.38;;;4.92;91.88
51261;BME280;61705;46.228;24.812;2023-04-15T01:28:12;96684.91;;;4.88;92.21
51261;BME280;61705;46.228;24.812;2023-04-15T01:30:38;96687.16;;;4.75;92.29
51261;BME280;61705;46.228;24.812;2023-04-15T01:33:05;96688.91;;;4.75;92.79
51261;BME280;61705;46.228;24.812;2023-04-15T01:35:32;96689.78;;;4.75;93.09
51261;BME280;61705;46.228;24.812;2023-04-15T01:38:04;96682.72;;;4.78;93.10
51261;BME280;61705;46.228;24.812;2023-04-15T01:40:32;96679.13;;;4.80;93.11
51261;BME280;61705;46.228;24.812;2023-04-15T01:42:59;96689.16;;;4.69;92.92
51261;BME280;61705;46.228;24.812;2023-04-15T01:45:27;96685.13;;;4.60;92.65
51261;BME280;61705;46.228;24.812;2023-04-15T01:47:54;96688.88;;;4.53;92.57
51261;BME280;61705;46.228;24.812;2023-04-15T01:50:21;96681.84;;;4.55;92.52
51261;BME280;61705;46.228;24.812;2023-04-15T01:52:47;96683.88;;;4.70;92.50
51261;BME280;61705;46.228;24.812;2023-04-15T01:55:14;96683.94;;;4.69;92.01
51261;BME280;61705;46.228;24.812;2023-04-15T01:57:41;96683.44;;;4.59;91.81
51261;BME280;61705;46.228;24.812;2023-04-15T02:00:08;96683.13;;;4.43;91.69
51261;BME280;61705;46.228;24.812;2023-04-15T02:02:35;96687.44;;;4.44;92.19
51261;BME280;61705;46.228;24.812;2023-04-15T02:05:02;96682.59;;;4.35;91.92
51261;BME280;61705;46.228;24.812;2023-04-15T02:07:30;96670.41;;;4.11;92.19
51261;BME280;61705;46.228;24.812;2023-04-15T02:09:57;96671.56;;;4.02;92.49
51261;BME280;61705;46.228;24.812;2023-04-15T02:12:24;96688.69;;;4.11;92.30
51261;BME280;61705;46.228;24.812;2023-04-15T02:14:51;96683.91;;;3.73;92.08
51261;BME280;61705;46.228;24.812;2023-04-15T02:17:17;96688.53;;;3.65;92.30
51261;BME280;61705;46.228;24.812;2023-04-15T02:19:44;96696.78;;;3.79;92.45
51261;BME280;61705;46.228;24.812;2023-04-15T02:22:11;96694.44;;;3.97;92.21
51261;BME280;61705;46.228;24.812;2023-04-15T02:24:44;96694.19;;;4.03;92.43
51261;BME280;61705;46.228;24.812;2023-04-15T02:27:15;96693.34;;;4.02;92.48
51261;BME280;61705;46.228;24.812;2023-04-15T02:29:44;96688.50;;;3.92;92.79
51261;BME280;61705;46.228;24.812;2023-04-15T02:32:13;96685.31;;;3.84;92.81
51261;BME280;61705;46.228;24.812;2023-04-15T02:34:40;96681.47;;;3.94;93.02
51261;BME280;61705;46.228;24.812;2023-04-15T02:37:09;96681.34;;;3.97;93.10
51261;BME280;61705;46.228;24.812;2023-04-15T02:39:37;96682.50;;;3.88;93.06
51261;BME280;61705;46.228;24.812;2023-04-15T02:42:04;96688.38;;;3.95;93.12
51261;BME280;61705;46.228;24.812;2023-04-15T02:44:31;96688.75;;;4.09;92.80
51261;BME280;61705;46.228;24.812;2023-04-15T02:46:59;96684.47;;;4.07;92.48
51261;BME280;61705;46.228;24.812;2023-04-15T02:49:26;96687.72;;;4.13;92.38
51261;BME280;61705;46.228;24.812;2023-04-15T02:51:55;96690.63;;;4.06;92.10
51261;BME280;61705;46.228;24.812;2023-04-15T02:54:23;96688.06;;;4.04;92.20
51261;BME280;61705;46.228;24.812;2023-04-15T02:56:50;96691.09;;;3.92;92.22
51261;BME280;61705;46.228;24.812;2023-04-15T02:59:20;96691.09;;;3.92;92.34
51261;BME280;61705;46.228;24.812;2023-04-15T03:01:47;96694.03;;;3.83;92.29
51261;BME280;61705;46.228;24.812;2023-04-15T03:04:14;96694.66;;;3.89;92.31
51261;BME280;61705;46.228;24.812;2023-04-15T03:06:41;96692.16;;;3.86;92.05
51261;BME280;61705;46.228;24.812;2023-04-15T03:09:07;96695.56;;;3.90;92.47
51261;BME280;61705;46.228;24.812;2023-04-15T03:11:34;96690.44;;;3.87;92.42
51261;BME280;61705;46.228;24.812;2023-04-15T03:14:05;96701.66;;;3.89;92.79
51261;BME280;61705;46.228;24.812;2023-04-15T03:16:32;96696.44;;;3.89;92.60
51261;BME280;61705;46.228;24.812;2023-04-15T03:18:59;96699.22;;;3.84;92.72
51261;BME280;61705;46.228;24.812;2023-04-15T03:21:26;96699.53;;;3.75;92.74
51261;BME280;61705;46.228;24.812;2023-04-15T03:23:53;96691.69;;;3.75;93.07
51261;BME280;61705;46.228;24.812;2023-04-15T03:26:30;96712.59;;;3.75;93.13
51261;BME280;61705;46.228;24.812;2023-04-15T03:28:57;96715.16;;;3.76;93.10
51261;BME280;61705;46.228;24.812;2023-04-15T03:31:23;96718.75;;;3.72;93.13
51261;BME280;61705;46.228;24.812;2023-04-15T03:33:50;96710.88;;;3.74;93.02
51261;BME280;61705;46.228;24.812;2023-04-15T03:36:17;96710.19;;;3.69;92.97
51261;BME280;61705;46.228;24.812;2023-04-15T03:38:44;96710.13;;;3.70;93.34
51261;BME280;61705;46.228;24.812;2023-04-15T03:41:11;96721.38;;;3.72;93.23
51261;BME280;61705;46.228;24.812;2023-04-15T03:43:38;96710.41;;;3.88;93.31
51261;BME280;61705;46.228;24.812;2023-04-15T03:46:05;96715.47;;;3.92;93.32
51261;BME280;61705;46.228;24.812;2023-04-15T03:48:32;96713.19;;;3.83;93.26
51261;BME280;61705;46.228;24.812;2023-04-15T03:50:58;96709.41;;;3.92;93.43
51261;BME280;61705;46.228;24.812;2023-04-15T03:53:25;96708.75;;;3.85;93.16
51261;BME280;61705;46.228;24.812;2023-04-15T03:55:52;96711.25;;;3.88;93.16
51261;BME280;61705;46.228;24.812;2023-04-15T03:58:18;96716.31;;;3.93;93.34
51261;BME280;61705;46.228;24.812;2023-04-15T04:00:45;96718.94;;;3.93;93.56
51261;BME280;61705;46.228;24.812;2023-04-15T04:03:12;96710.97;;;3.97;93.48
51261;BME280;61705;46.228;24.812;2023-04-15T04:05:39;96712.66;;;3.98;93.73
51261;BME280;61705;46.228;24.812;2023-04-15T04:08:06;96724.56;;;4.07;93.75
51261;BME280;61705;46.228;24.812;2023-04-15T04:10:33;96725.41;;;4.08;93.59
51261;BME280;61705;46.228;24.812;2023-04-15T04:13:00;96723.53;;;4.11;93.68
51261;BME280;61705;46.228;24.812;2023-04-15T04:15:27;96720.84;;;4.13;93.69
51261;BME280;61705;46.228;24.812;2023-04-15T04:17:53;96720.31;;;4.03;93.45
51261;BME280;61705;46.228;24.812;2023-04-15T04:20:20;96725.66;;;4.00;93.72
51261;BME280;61705;46.228;24.812;2023-04-15T04:22:47;96726.38;;;4.05;94.03
51261;BME280;61705;46.228;24.812;2023-04-15T04:25:14;96723.81;;;4.03;93.88
51261;BME280;61705;46.228;24.812;2023-04-15T04:27:40;96730.94;;;3.98;93.83
51261;BME280;61705;46.228;24.812;2023-04-15T04:30:07;96733.22;;;3.83;93.78
51261;BME280;61705;46.228;24.812;2023-04-15T04:32:34;96726.91;;;3.90;94.17
51261;BME280;61705;46.228;24.812;2023-04-15T04:35:02;96729.66;;;3.85;94.28
51261;BME280;61705;46.228;24.812;2023-04-15T04:37:29;96731.75;;;4.00;94.35
51261;BME280;61705;46.228;24.812;2023-04-15T04:39:55;96729.88;;;4.04;94.13
51261;BME280;61705;46.228;24.812;2023-04-15T04:42:22;96723.81;;;4.03;94.19
51261;BME280;61705;46.228;24.812;2023-04-15T04:44:49;96726.38;;;4.05;94.31
51261;BME280;61705;46.228;24.812;2023-04-15T04:47:15;96729.94;;;4.02;94.29
51261;BME280;61705;46.228;24.812;2023-04-15T04:49:42;96723.47;;;4.13;94.26
51261;BME280;61705;46.228;24.812;2023-04-15T04:52:09;96720.13;;;4.34;93.94
51261;BME280;61705;46.228;24.812;2023-04-15T04:54:35;96722.22;;;4.48;93.73
51261;BME280;61705;46.228;24.812;2023-04-15T04:57:02;96730.75;;;4.53;93.22
51261;BME280;61705;46.228;24.812;2023-04-15T04:59:29;96728.94;;;4.55;93.06
51261;BME280;61705;46.228;24.812;2023-04-15T05:01:56;96727.91;;;4.59;92.55
51261;BME280;61705;46.228;24.812;2023-04-15T05:04:22;96728.84;;;4.80;92.22
51261;BME280;61705;46.228;24.812;2023-04-15T05:06:49;96725.41;;;5.02;91.99
51261;BME280;61705;46.228;24.812;2023-04-15T05:09:16;96726.69;;;4.91;91.51
51261;BME280;61705;46.228;24.812;2023-04-15T05:11:43;96723.56;;;4.82;91.24
51261;BME280;61705;46.228;24.812;2023-04-15T05:14:09;96731.91;;;4.91;91.48
51261;BME280;61705;46.228;24.812;2023-04-15T05:16:36;96725.91;;;4.89;91.30
51261;BME280;61705;46.228;24.812;2023-04-15T05:19:03;96729.81;;;5.01;91.14
51261;BME280;61705;46.228;24.812;2023-04-15T05:21:30;96738.78;;;5.17;91.05
51261;BME280;61705;46.228;24.812;2023-04-15T05:23:57;96737.13;;;5.15;90.76
51261;BME280;61705;46.228;24.812;2023-04-15T05:26:23;96742.78;;;5.26;90.62
51261;BME280;61705;46.228;24.812;2023-04-15T05:28:50;96745.88;;;5.36;89.99
51261;BME280;61705;46.228;24.812;2023-04-15T05:31:17;96737.53;;;5.26;90.00
51261;BME280;61705;46.228;24.812;2023-04-15T05:33:43;96745.16;;;5.32;90.01
51261;BME280;61705;46.228;24.812;2023-04-15T05:36:10;96741.50;;;5.58;90.08
51261;BME280;61705;46.228;24.812;2023-04-15T05:38:37;96744.50;;;5.71;89.70
51261;BME280;61705;46.228;24.812;2023-04-15T05:41:04;96745.34;;;5.72;89.28
51261;BME280;61705;46.228;24.812;2023-04-15T05:43:31;96750.09;;;5.62;89.24
51261;BME280;61705;46.228;24.812;2023-04-15T05:45:57;96753.47;;;5.86;89.42
51261;BME280;61705;46.228;24.812;2023-04-15T05:48:24;96759.63;;;5.85;89.17
51261;BME280;61705;46.228;24.812;2023-04-15T05:50:51;96766.31;;;5.72;89.01
51261;BME280;61705;46.228;24.812;2023-04-15T05:53:18;96758.16;;;5.78;89.06
51261;BME280;61705;46.228;24.812;2023-04-15T05:55:44;96764.22;;;5.80;89.20
51261;BME280;61705;46.228;24.812;2023-04-15T05:58:11;96765.66;;;5.87;89.70
51261;BME280;61705;46.228;24.812;2023-04-15T06:00:38;96762.16;;;6.08;89.40
51261;BME280;61705;46.228;24.812;2023-04-15T06:03:05;96760.66;;;6.23;89.39
51261;BME280;61705;46.228;24.812;2023-04-15T06:05:33;96752.97;;;6.39;89.12
51261;BME280;61705;46.228;24.812;2023-04-15T06:08:00;96753.97;;;6.36;88.80
51261;BME280;61705;46.228;24.812;2023-04-15T06:10:26;96749.47;;;6.59;88.69
51261;BME280;61705;46.228;24.812;2023-04-15T06:12:53;96752.84;;;6.81;88.47
51261;BME280;61705;46.228;24.812;2023-04-15T06:15:20;96753.28;;;6.91;88.45
51261;BME280;61705;46.228;24.812;2023-04-15T06:17:47;96748.34;;;6.83;87.99
51261;BME280;61705;46.228;24.812;2023-04-15T06:20:13;96755.97;;;7.08;87.90
51261;BME280;61705;46.228;24.812;2023-04-15T06:22:40;96756.75;;;7.29;87.53
51261;BME280;61705;46.228;24.812;2023-04-15T06:25:07;96748.13;;;7.45;87.01
51261;BME280;61705;46.228;24.812;2023-04-15T06:27:34;96751.06;;;7.39;86.62
51261;BME280;61705;46.228;24.812;2023-04-15T06:30:01;96753.75;;;7.37;86.88
51261;BME280;61705;46.228;24.812;2023-04-15T06:32:28;96762.84;;;7.49;86.66
51261;BME280;61705;46.228;24.812;2023-04-15T06:34:55;96761.63;;;7.56;86.74
51261;BME280;61705;46.228;24.812;2023-04-15T06:37:22;96762.66;;;7.88;86.42
51261;BME280;61705;46.228;24.812;2023-04-15T06:39:48;96757.34;;;8.07;85.68
51261;BME280;61705;46.228;24.812;2023-04-15T06:42:15;96753.88;;;8.24;85.03
51261;BME280;61705;46.228;24.812;2023-04-15T06:44:42;96757.25;;;8.26;84.36
51261;BME280;61705;46.228;24.812;2023-04-15T06:47:08;96759.44;;;8.35;84.50
51261;BME280;61705;46.228;24.812;2023-04-15T06:49:35;96758.50;;;8.53;84.07
51261;BME280;61705;46.228;24.812;2023-04-15T06:52:02;96756.50;;;8.59;83.78
51261;BME280;61705;46.228;24.812;2023-04-15T06:54:30;96759.94;;;8.76;83.32
51261;BME280;61705;46.228;24.812;2023-04-15T06:56:57;96761.16;;;8.87;83.08
51261;BME280;61705;46.228;24.812;2023-04-15T06:59:24;96759.88;;;8.94;82.96
51261;BME280;61705;46.228;24.812;2023-04-15T07:01:50;96758.88;;;9.12;82.78
51261;BME280;61705;46.228;24.812;2023-04-15T07:04:17;96755.97;;;9.01;82.64
51261;BME280;61705;46.228;24.812;2023-04-15T07:06:44;96755.16;;;9.16;82.24
51261;BME280;61705;46.228;24.812;2023-04-15T07:09:11;96753.97;;;9.38;81.80
51261;BME280;61705;46.228;24.812;2023-04-15T07:11:38;96755.31;;;9.61;81.21
51261;BME280;61705;46.228;24.812;2023-04-15T07:14:04;96754.94;;;9.83;80.67
51261;BME280;61705;46.228;24.812;2023-04-15T07:16:32;96753.00;;;9.70;80.60
51261;BME280;61705;46.228;24.812;2023-04-15T07:18:58;96755.50;;;9.88;80.03
51261;BME280;61705;46.228;24.812;2023-04-15T07:21:25;96754.50;;;10.20;79.77
51261;BME280;61705;46.228;24.812;2023-04-15T07:23:53;96749.44;;;10.76;78.26
51261;BME280;61705;46.228;24.812;2023-04-15T07:26:19;96754.06;;;11.01;77.57
51261;BME280;61705;46.228;24.812;2023-04-15T07:28:46;96763.97;;;11.12;76.26
51261;BME280;61705;46.228;24.812;2023-04-15T07:31:12;96770.94;;;11.13;76.83
51261;BME280;61705;46.228;24.812;2023-04-15T07:33:40;96777.34;;;11.37;76.06
51261;BME280;61705;46.228;24.812;2023-04-15T07:36:07;96770.66;;;11.73;74.91
51261;BME280;61705;46.228;24.812;2023-04-15T07:38:33;96775.56;;;12.06;74.57
51261;BME280;61705;46.228;24.812;2023-04-15T07:41:00;96765.53;;;12.12;74.55
51261;BME280;61705;46.228;24.812;2023-04-15T07:43:27;96767.22;;;12.13;73.32
51261;BME280;61705;46.228;24.812;2023-04-15T07:45:53;96762.03;;;12.24;71.28
51261;BME280;61705;46.228;24.812;2023-04-15T07:48:20;96769.91;;;12.25;72.74
51261;BME280;61705;46.228;24.812;2023-04-15T07:50:47;96765.09;;;12.45;72.86
51261;BME280;61705;46.228;24.812;2023-04-15T07:53:13;96764.31;;;12.43;72.53
51261;BME280;61705;46.228;24.812;2023-04-15T07:55:40;96754.25;;;12.35;72.50
51261;BME280;61705;46.228;24.812;2023-04-15T07:58:07;96763.81;;;12.38;72.10
51261;BME280;61705;46.228;24.812;2023-04-15T08:00:33;96765.72;;;12.48;71.22
51261;BME280;61705;46.228;24.812;2023-04-15T08:03:00;96763.50;;;12.55;71.21
51261;BME280;61705;46.228;24.812;2023-04-15T08:05:27;96765.78;;;12.34;71.07
51261;BME280;61705;46.228;24.812;2023-04-15T08:07:53;96764.66;;;12.38;71.41
51261;BME280;61705;46.228;24.812;2023-04-15T08:10:20;96773.22;;;12.54;70.60
51261;BME280;61705;46.228;24.812;2023-04-15T08:12:47;96765.19;;;12.56;70.54
51261;BME280;61705;46.228;24.812;2023-04-15T08:15:14;96761.16;;;12.50;70.05
51261;BME280;61705;46.228;24.812;2023-04-15T08:17:42;96761.38;;;12.60;68.92
51261;BME280;61705;46.228;24.812;2023-04-15T08:20:09;96762.66;;;12.67;68.02
51261;BME280;61705;46.228;24.812;2023-04-15T08:22:35;96769.13;;;12.89;68.02
51261;BME280;61705;46.228;24.812;2023-04-15T08:25:02;96761.72;;;12.94;67.10
51261;BME280;61705;46.228;24.812;2023-04-15T08:27:28;96758.72;;;12.98;67.23
51261;BME280;61705;46.228;24.812;2023-04-15T08:29:55;96768.47;;;12.85;66.77
51261;BME280;61705;46.228;24.812;2023-04-15T08:32:21;96763.63;;;12.79;66.55
51261;BME280;61705;46.228;24.812;2023-04-15T08:34:48;96766.25;;;12.92;66.32
51261;BME280;61705;46.228;24.812;2023-04-15T08:37:14;96761.38;;;13.37;65.65
51261;BME280;61705;46.228;24.812;2023-04-15T08:39:41;96755.53;;;13.68;65.08
51261;BME280;61705;46.228;24.812;2023-04-15T08:42:15;96754.94;;;13.89;64.75
51261;BME280;61705;46.228;24.812;2023-04-15T08:44:48;96760.78;;;14.29;63.64
51261;BME280;61705;46.228;24.812;2023-04-15T08:47:14;96757.00;;;14.56;62.58
51261;BME280;61705;46.228;24.812;2023-04-15T08:49:43;96755.34;;;14.66;62.22
51261;BME280;61705;46.228;24.812;2023-04-15T08:52:10;96757.16;;;14.54;60.51
51261;BME280;61705;46.228;24.812;2023-04-15T08:54:37;96753.53;;;14.66;60.62
51261;BME280;61705;46.228;24.812;2023-04-15T08:57:04;96753.31;;;14.69;59.52
51261;BME280;61705;46.228;24.812;2023-04-15T08:59:32;96747.50;;;14.64;59.06
51261;BME280;61705;46.228;24.812;2023-04-15T09:01:58;96751.00;;;14.65;58.44
51261;BME280;61705;46.228;24.812;2023-04-15T09:04:25;96741.13;;;14.78;56.60
51261;BME280;61705;46.228;24.812;2023-04-15T09:06:53;96745.00;;;14.74;54.58
51261;BME280;61705;46.228;24.812;2023-04-15T09:09:19;96746.28;;;14.57;53.52
51261;BME280;61705;46.228;24.812;2023-04-15T09:11:46;96744.50;;;14.45;52.20
51261;BME280;61705;46.228;24.812;2023-04-15T09:14:16;96739.88;;;14.60;51.29
51261;BME280;61705;46.228;24.812;2023-04-15T09:17:01;96744.47;;;14.58;48.76
51261;BME280;61705;46.228;24.812;2023-04-15T09:19:29;96742.56;;;14.71;48.96
51261;BME280;61705;46.228;24.812;2023-04-15T09:22:05;96739.91;;;14.82;48.89
51261;BME280;61705;46.228;24.812;2023-04-15T09:24:35;96738.84;;;14.85;46.63
51261;BME280;61705;46.228;24.812;2023-04-15T09:27:08;96738.56;;;14.77;44.04
51261;BME280;61705;46.228;24.812;2023-04-15T09:29:38;96741.25;;;14.99;44.23
51261;BME280;61705;46.228;24.812;2023-04-15T09:32:12;96744.75;;;15.11;43.72
51261;BME280;61705;46.228;24.812;2023-04-15T09:34:38;96736.78;;;15.33;43.00
51261;BME280;61705;46.228;24.812;2023-04-15T09:37:05;96741.00;;;15.70;42.18
51261;BME280;61705;46.228;24.812;2023-04-15T09:39:49;96733.66;;;16.26;41.96
51261;BME280;61705;46.228;24.812;2023-04-15T09:42:18;96737.59;;;16.11;41.85
51261;BME280;61705;46.228;24.812;2023-04-15T09:44:52;96743.34;;;15.95;41.50
51261;BME280;61705;46.228;24.812;2023-04-15T09:47:31;96743.69;;;16.02;40.93
51261;BME280;61705;46.228;24.812;2023-04-15T09:49:58;96730.06;;;16.16;40.47
51261;BME280;61705;46.228;24.812;2023-04-15T09:52:26;96726.25;;;15.98;39.18
51261;BME280;61705;46.228;24.812;2023-04-15T09:54:56;96733.19;;;15.89;39.35
51261;BME280;61705;46.228;24.812;2023-04-15T09:57:24;96738.66;;;15.87;39.32
51261;BME280;61705;46.228;24.812;2023-04-15T09:59:58;96731.19;;;15.70;39.12
51261;BME280;61705;46.228;24.812;2023-04-15T10:02:25;96726.31;;;15.75;39.46
51261;BME280;61705;46.228;24.812;2023-04-15T10:04:52;96723.91;;;15.61;38.57
51261;BME280;61705;46.228;24.812;2023-04-15T10:07:20;96725.41;;;15.43;37.73
51261;BME280;61705;46.228;24.812;2023-04-15T10:09:48;96719.81;;;15.57;38.62
51261;BME280;61705;46.228;24.812;2023-04-15T10:12:15;96725.38;;;15.76;38.47
51261;BME280;61705;46.228;24.812;2023-04-15T10:14:52;96710.22;;;15.77;35.94
51261;BME280;61705;46.228;24.812;2023-04-15T10:17:22;96695.13;;;15.98;36.43
51261;BME280;61705;46.228;24.812;2023-04-15T10:19:48;96701.72;;;16.36;36.50
51261;BME280;61705;46.228;24.812;2023-04-15T10:22:18;96703.31;;;16.80;36.80
51261;BME280;61705;46.228;24.812;2023-04-15T10:24:45;96695.88;;;17.15;36.44
51261;BME280;61705;46.228;24.812;2023-04-15T10:27:12;96695.88;;;16.42;36.52
51261;BME280;61705;46.228;24.812;2023-04-15T10:29:39;96694.75;;;16.24;36.21
51261;BME280;61705;46.228;24.812;2023-04-15T10:32:13;96690.63;;;16.52;35.24
51261;BME280;61705;46.228;24.812;2023-04-15T10:34:40;96690.72;;;16.71;35.46
51261;BME280;61705;46.228;24.812;2023-04-15T10:37:08;96681.84;;;16.82;34.38
51261;BME280;61705;46.228;24.812;2023-04-15T10:42:11;96690.69;;;17.23;33.69
51261;BME280;61705;46.228;24.812;2023-04-15T10:44:41;96676.59;;;17.51;33.07
51261;BME280;61705;46.228;24.812;2023-04-15T10:47:18;96665.88;;;17.42;33.06
51261;BME280;61705;46.228;24.812;2023-04-15T10:49:46;96668.16;;;17.56;33.26
51261;BME280;61705;46.228;24.812;2023-04-15T10:52:14;96670.09;;;17.44;33.41
51261;BME280;61705;46.228;24.812;2023-04-15T10:54:42;96668.69;;;17.40;31.89
51261;BME280;61705;46.228;24.812;2023-04-15T10:57:16;96671.69;;;17.07;32.60
51261;BME280;61705;46.228;24.812;2023-04-15T11:00:13;96668.75;;;17.19;32.31
51261;BME280;61705;46.228;24.812;2023-04-15T11:02:53;96659.69;;;17.41;32.06
51261;BME280;61705;46.228;24.812;2023-04-15T11:06:06;96655.28;;;17.21;31.85
51261;BME280;61705;46.228;24.812;2023-04-15T11:08:13;96669.22;;;17.94;32.13
51261;BME280;61705;46.228;24.812;2023-04-15T11:10:51;96668.78;;;17.29;31.89
51261;BME280;61705;46.228;24.812;2023-04-15T11:13:21;96680.75;;;16.94;33.37
51261;BME280;61705;46.228;24.812;2023-04-15T11:15:54;96674.09;;;17.19;32.58
51261;BME280;61705;46.228;24.812;2023-04-15T11:18:33;96675.88;;;16.99;32.83
51261;BME280;61705;46.228;24.812;2023-04-15T11:21:01;96669.47;;;17.21;32.66
51261;BME280;61705;46.228;24.812;2023-04-15T11:23:36;96665.72;;;17.43;32.60
51261;BME280;61705;46.228;24.812;2023-04-15T11:26:07;96667.47;;;17.64;32.50
51261;BME280;61705;46.228;24.812;2023-04-15T11:28:38;96667.19;;;17.67;32.92
51261;BME280;61705;46.228;24.812;2023-04-15T11:31:28;96665.47;;;17.56;32.11
51261;BME280;61705;46.228;24.812;2023-04-15T11:33:56;96677.09;;;17.76;32.46
51261;BME280;61705;46.228;24.812;2023-04-15T11:36:28;96666.81;;;17.91;32.35
51261;BME280;61705;46.228;24.812;2023-04-15T11:38:56;96679.28;;;17.61;32.87
51261;BME280;61705;46.228;24.812;2023-04-15T11:41:23;96681.66;;;17.74;32.47
51261;BME280;61705;46.228;24.812;2023-04-15T11:43:49;96680.47;;;18.07;32.03
51261;BME280;61705;46.228;24.812;2023-04-15T11:46:19;96686.91;;;17.75;31.96
51261;BME280;61705;46.228;24.812;2023-04-15T11:48:47;96685.59;;;17.50;31.86
51261;BME280;61705;46.228;24.812;2023-04-15T11:51:13;96694.91;;;17.75;31.59
51261;BME280;61705;46.228;24.812;2023-04-15T11:56:08;96682.72;;;18.12;31.09
51261;BME280;61705;46.228;24.812;2023-04-15T11:58:35;96677.06;;;18.44;30.63
51261;BME280;61705;46.228;24.812;2023-04-15T12:01:04;96677.50;;;18.39;31.14
51261;BME280;61705;46.228;24.812;2023-04-15T12:03:42;96678.47;;;18.29;30.73
51261;BME280;61705;46.228;24.812;2023-04-15T12:11:31;96679.06;;;18.13;30.58
51261;BME280;61705;46.228;24.812;2023-04-15T12:14:12;96678.19;;;18.22;31.31
51261;BME280;61705;46.228;24.812;2023-04-15T12:16:48;96677.72;;;18.65;30.60
51261;BME280;61705;46.228;24.812;2023-04-15T12:19:42;96679.03;;;18.52;30.79
51261;BME280;61705;46.228;24.812;2023-04-15T12:22:11;96676.69;;;18.29;30.44
51261;BME280;61705;46.228;24.812;2023-04-15T12:24:38;96687.66;;;18.26;30.81
51261;BME280;61705;46.228;24.812;2023-04-15T12:30:02;96685.69;;;17.89;30.75
51261;BME280;61705;46.228;24.812;2023-04-15T12:32:29;96682.03;;;18.10;30.37
51261;BME280;61705;46.228;24.812;2023-04-15T12:34:55;96679.50;;;17.89;29.29
51261;BME280;61705;46.228;24.812;2023-04-15T12:37:22;96678.34;;;17.91;29.78
51261;BME280;61705;46.228;24.812;2023-04-15T12:39:51;96676.13;;;18.06;29.66
51261;BME280;61705;46.228;24.812;2023-04-15T12:42:24;96672.72;;;18.14;30.20
51261;BME280;61705;46.228;24.812;2023-04-15T12:44:50;96672.84;;;18.22;30.11
51261;BME280;61705;46.228;24.812;2023-04-15T12:47:27;96669.34;;;18.31;29.09
51261;BME280;61705;46.228;24.812;2023-04-15T12:49:54;96665.00;;;18.20;30.13
51261;BME280;61705;46.228;24.812;2023-04-15T12:52:21;96672.16;;;18.10;30.18
51261;BME280;61705;46.228;24.812;2023-04-15T12:55:21;96661.75;;;18.36;30.01
51261;BME280;61705;46.228;24.812;2023-04-15T12:57:53;96659.28;;;19.09;28.64
51261;BME280;61705;46.228;24.812;2023-04-15T13:00:20;96650.25;;;19.65;28.58
51261;BME280;61705;46.228;24.812;2023-04-15T13:02:47;96628.38;;;19.88;27.32
51261;BME280;61705;46.228;24.812;2023-04-15T13:05:14;96638.41;;;19.68;26.89
51261;BME280;61705;46.228;24.812;2023-04-15T13:07:41;96636.94;;;20.09;26.97
51261;BME280;61705;46.228;24.812;2023-04-15T13:10:08;96635.78;;;20.12;27.06
51261;BME280;61705;46.228;24.812;2023-04-15T13:12:35;96642.00;;;20.12;25.40
51261;BME280;61705;46.228;24.812;2023-04-15T13:15:08;96642.56;;;19.53;26.62